Terminal Aerodrome Forecast
Issued by NWS

Home | Current Version | Previous Version | Text Only | Print | Product List | Glossary On
Versions: 1 2 3 4 5 6 7 8 9 10 11 12 13 14 15 16 17 18 19 20 21 22
000
FTUS43 KLOT 140306 AAA
TAFGYY
TAF AMD
KGYY 140306Z 1403/1424 32020G32KT P6SM -SN OVC020
     FM140500 35015G25KT 6SM -SN SCT015 OVC020
      TEMPO 1409/1413 3/4SM -SN BKN009 OVC015
     FM141400 33011KT P6SM SCT025 SCT250
     FM142100 29008KT P6SM SCT250=

USA.gov is the U.S. government's official web portal to all federal, state and local government web resources and services.